createdAt,value
2018-07-04T05:04:34.042Z,21.34
2018-07-04T05:09:55.197Z,21.50
2018-07-04T05:15:16.281Z,21.56
2018-07-04T05:20:43.273Z,21.46
2018-07-04T05:26:05.143Z,21.50
2018-07-04T05:31:26.368Z,21.48
2018-07-04T05:36:48.292Z,21.49
2018-07-04T05:42:09.987Z,21.46
2018-07-04T05:47:31.055Z,21.64
2018-07-04T05:52:52.305Z,21.78
2018-07-04T05:58:13.322Z,21.92
2018-07-04T06:03:34.544Z,21.98
2018-07-04T06:08:55.865Z,22.02
2018-07-04T06:14:16.791Z,22.19
2018-07-04T06:19:37.877Z,22.16
2018-07-04T06:24:59.103Z,22.28
2018-07-04T06:30:20.178Z,22.47
2018-07-04T06:35:41.401Z,22.53
2018-07-04T06:40:43.947Z,22.53
2018-07-04T06:45:46.497Z,22.56
2018-07-04T06:50:49.054Z,22.74
2018-07-04T06:55:51.619Z,22.89
2018-07-04T07:00:54.938Z,22.97
2018-07-04T07:06:17.008Z,22.84
2018-07-04T07:11:38.071Z,22.97
2018-07-04T07:16:59.139Z,23.09
2018-07-04T07:22:21.118Z,23.38
2018-07-04T07:27:42.214Z,23.67
2018-07-04T07:33:04.031Z,23.82
2018-07-04T07:38:25.331Z,23.95
2018-07-04T07:43:46.581Z,23.79
2018-07-04T07:49:07.523Z,23.95
2018-07-04T07:54:28.832Z,23.66
2018-07-04T07:59:49.823Z,23.86
2018-07-04T08:05:11.670Z,24.06
2018-07-04T08:10:33.515Z,24.17
2018-07-04T08:15:55.235Z,23.99
2018-07-04T08:21:16.306Z,23.89
2018-07-04T08:26:37.375Z,23.97
2018-07-04T08:31:58.706Z,24.21
2018-07-04T08:37:19.695Z,24.37
2018-07-04T08:42:40.819Z,24.63
2018-07-04T08:48:02.547Z,24.80
2018-07-04T08:53:24.371Z,25.06
2018-07-04T08:58:45.430Z,25.26
2018-07-04T09:04:07.292Z,25.10
2018-07-04T09:09:28.630Z,25.34
2018-07-04T09:14:49.747Z,25.77
2018-07-04T09:20:11.435Z,25.60
2018-07-04T09:25:32.664Z,25.52
2018-07-04T09:30:53.762Z,25.72
2018-07-04T09:36:14.855Z,25.84
2018-07-04T09:41:36.466Z,25.53
2018-07-04T09:46:58.126Z,25.40
2018-07-04T09:52:19.789Z,25.36
2018-07-04T09:57:43.711Z,25.51
2018-07-04T10:03:04.810Z,25.62
2018-07-04T10:08:25.914Z,25.75
2018-07-04T10:13:47.186Z,25.58
2018-07-04T10:19:09.042Z,25.74
2018-07-04T10:24:30.313Z,25.92
2018-07-04T10:29:51.646Z,26.09
2018-07-04T10:35:12.874Z,26.23
2018-07-04T10:40:33.938Z,26.29
2018-07-04T10:45:55.036Z,26.39
2018-07-04T10:51:16.116Z,26.04
2018-07-04T10:56:37.962Z,26.35
2018-07-04T11:01:59.926Z,26.26
2018-07-04T11:07:21.773Z,26.15
2018-07-04T11:12:42.947Z,26.26
2018-07-04T11:18:03.968Z,26.32
2018-07-04T11:23:25.050Z,26.28
2018-07-04T11:28:46.873Z,26.47
2018-07-04T11:34:07.831Z,26.69
2018-07-04T11:39:29.005Z,26.85
2018-07-04T11:44:50.047Z,26.81
2018-07-04T11:49:52.719Z,26.89
2018-07-04T11:54:55.248Z,26.91
2018-07-04T11:59:57.786Z,26.82
2018-07-04T12:05:19.242Z,26.69
2018-07-04T12:10:21.769Z,26.62
2018-07-04T12:15:24.307Z,24.96
2018-07-04T12:20:26.846Z,23.14
2018-07-04T12:25:29.391Z,22.51
2018-07-04T12:30:32.114Z,22.62
2018-07-04T12:35:34.683Z,23.37
2018-07-04T12:40:37.471Z,23.68
2018-07-04T12:45:39.990Z,24.09
2018-07-04T12:50:42.638Z,23.90
2018-07-04T12:56:03.778Z,23.76
2018-07-04T13:01:25.472Z,24.24
2018-07-04T13:06:46.675Z,24.48
2018-07-04T13:12:07.647Z,24.62
2018-07-04T13:17:28.816Z,24.88
2018-07-04T13:22:50.667Z,25.12
2018-07-04T13:28:12.514Z,25.32
2018-07-04T13:33:34.461Z,25.74
2018-07-04T13:38:56.407Z,25.98
2018-07-04T13:44:18.241Z,26.33
2018-07-04T13:49:39.312Z,26.58
2018-07-04T13:55:01.115Z,26.58
2018-07-04T14:00:23.238Z,26.68
2018-07-04T14:05:44.864Z,26.87
2018-07-04T14:11:05.941Z,26.27
2018-07-04T14:16:27.931Z,25.70
2018-07-04T14:21:49.023Z,25.71
2018-07-04T14:27:11.126Z,25.82
2018-07-04T14:32:32.246Z,26.00
2018-07-04T14:37:53.287Z,25.85
2018-07-04T14:43:14.512Z,26.83
2018-07-04T14:48:35.532Z,26.40
2018-07-04T14:53:56.632Z,26.73
2018-07-04T14:59:18.357Z,26.72
2018-07-04T15:04:39.433Z,27.22
2018-07-04T15:10:00.548Z,27.70
2018-07-04T15:15:21.914Z,27.79
2018-07-04T15:20:42.988Z,27.83
2018-07-04T15:26:04.963Z,27.94
2018-07-04T15:31:26.050Z,27.90
2018-07-04T15:36:47.194Z,28.01
2018-07-04T15:42:08.479Z,28.08
2018-07-04T15:47:29.571Z,28.00
2018-07-04T15:52:51.414Z,28.02
2018-07-04T15:58:13.223Z,28.18
2018-07-04T16:03:34.290Z,28.89
2018-07-04T16:08:56.086Z,30.20
2018-07-04T16:14:17.155Z,31.58
2018-07-04T16:19:39.004Z,32.54
2018-07-04T16:25:00.851Z,33.05
2018-07-04T16:30:22.919Z,33.26
2018-07-04T16:35:44.035Z,32.97
2018-07-04T16:41:05.882Z,32.73
2018-07-04T16:46:27.870Z,32.84
2018-07-04T16:51:48.951Z,32.62
2018-07-04T16:57:10.935Z,32.21
2018-07-04T17:02:32.003Z,31.92
2018-07-04T17:07:53.099Z,32.03
2018-07-04T17:13:14.189Z,31.79
2018-07-04T17:18:36.039Z,31.73
2018-07-04T17:23:57.883Z,31.51
2018-07-04T17:29:21.702Z,31.90
2018-07-04T17:34:42.838Z,32.03
2018-07-04T17:40:03.823Z,32.44
2018-07-04T17:45:25.024Z,32.29
2018-07-04T17:50:46.255Z,32.16
2018-07-04T17:56:07.563Z,31.95
2018-07-04T18:01:28.738Z,31.79
2018-07-04T18:06:49.816Z,32.00
2018-07-04T18:12:10.840Z,32.12
2018-07-04T18:17:31.947Z,32.30
2018-07-04T18:22:53.101Z,32.01
2018-07-04T18:28:14.211Z,31.69
2018-07-04T18:33:36.042Z,31.49
2018-07-04T18:38:57.183Z,31.44
2018-07-04T18:44:18.525Z,31.01
2018-07-04T18:49:43.141Z,30.42
2018-07-04T18:55:04.376Z,29.66
2018-07-04T19:00:26.225Z,29.50
2018-07-04T19:05:47.675Z,29.15
2018-07-04T19:11:09.007Z,28.73
2018-07-04T19:16:30.146Z,28.39
2018-07-04T19:21:51.569Z,28.09
2018-07-04T19:27:12.895Z,27.89
2018-07-04T19:32:34.465Z,27.72
2018-07-04T19:37:55.742Z,27.57
2018-07-04T19:43:16.824Z,27.48
2018-07-04T19:48:38.627Z,27.42
2018-07-04T19:54:00.364Z,27.29
2018-07-04T19:59:21.411Z,27.12
2018-07-04T20:04:43.250Z,27.00
2018-07-04T20:10:04.377Z,26.85
2018-07-04T20:15:26.267Z,26.69
2018-07-04T20:20:49.564Z,26.53
2018-07-04T20:26:10.747Z,26.41
2018-07-04T20:31:32.852Z,26.28
2018-07-04T20:36:54.089Z,26.10
2018-07-04T20:42:15.182Z,25.97
2018-07-04T20:47:36.425Z,25.83
2018-07-04T20:52:58.218Z,25.72
2018-07-04T20:58:19.200Z,25.64
2018-07-04T21:03:40.300Z,25.53
2018-07-04T21:09:01.418Z,25.33
2018-07-04T21:14:23.343Z,25.19
2018-07-04T21:19:44.466Z,25.13
2018-07-04T21:25:05.502Z,24.98
2018-07-04T21:30:26.657Z,24.85
2018-07-04T21:35:47.777Z,24.59
2018-07-04T21:41:09.650Z,24.36
2018-07-04T21:46:30.714Z,24.21
2018-07-04T21:51:51.759Z,24.17
2018-07-04T21:57:12.810Z,24.13
2018-07-04T22:02:34.658Z,24.03
2018-07-04T22:07:56.505Z,23.92
2018-07-04T22:13:17.623Z,23.79
2018-07-04T22:18:38.661Z,23.60
2018-07-04T22:24:00.635Z,23.40
2018-07-04T22:29:21.958Z,23.23
